createdAt,value
2019-04-05T00:01:29.411Z,23.92
2019-04-05T00:06:33.133Z,23.18
2019-04-05T00:11:36.476Z,22.80
2019-04-05T00:16:40.161Z,21.97
2019-04-05T00:21:43.581Z,23.03
2019-04-05T00:26:47.300Z,23.57
2019-04-05T00:31:50.697Z,24.03
2019-04-05T00:36:54.098Z,23.17
2019-04-05T00:41:57.762Z,24.80
2019-04-05T00:47:01.483Z,23.93
2019-04-05T00:52:05.196Z,26.97
2019-04-05T00:57:08.611Z,28.63
2019-04-05T01:02:11.934Z,24.03
2019-04-05T01:07:15.391Z,26.20
2019-04-05T01:12:20.370Z,25.20
2019-04-05T01:17:26.024Z,26.40
2019-04-05T01:22:29.129Z,24.77
2019-04-05T01:27:32.196Z,25.67
2019-04-05T01:32:35.826Z,27.23
2019-04-05T01:37:39.932Z,23.30
2019-04-05T01:42:43.087Z,24.17
2019-04-05T01:47:46.771Z,22.93
2019-04-05T01:52:50.112Z,28.90
2019-04-05T01:57:53.786Z,24.47
2019-04-05T02:02:57.503Z,21.47
2019-04-05T02:08:00.819Z,23.10
2019-04-05T02:13:04.356Z,24.77
2019-04-05T02:18:07.423Z,25.03
2019-04-05T02:23:10.831Z,20.30
2019-04-05T02:28:14.221Z,23.17
2019-04-05T02:33:18.009Z,21.90
2019-04-05T02:38:21.533Z,22.33
2019-04-05T02:43:27.699Z,24.23
2019-04-05T02:48:34.178Z,25.17
2019-04-05T02:53:39.356Z,23.50
2019-04-05T02:58:44.087Z,24.03
2019-04-05T03:03:47.222Z,23.20
2019-04-05T03:08:51.368Z,21.93
2019-04-05T03:13:57.749Z,25.50
2019-04-05T03:19:07.227Z,23.18
2019-04-05T03:24:13.709Z,22.00
2019-04-05T03:29:16.851Z,24.50
2019-04-05T03:34:20.377Z,24.93
2019-04-05T03:39:23.841Z,24.77
2019-04-05T03:44:27.824Z,24.27
2019-04-05T03:49:30.967Z,24.15
2019-04-05T03:54:34.372Z,21.53
2019-04-05T03:59:38.079Z,23.20
2019-04-05T04:04:41.218Z,22.20
2019-04-05T04:09:44.355Z,26.03
2019-04-05T04:14:47.452Z,25.00
2019-04-05T04:19:50.988Z,26.00
2019-04-05T04:24:54.553Z,25.43
2019-04-05T04:30:00.467Z,25.53
2019-04-05T04:35:05.711Z,25.73
2019-04-05T04:40:09.363Z,25.50
2019-04-05T04:45:13.183Z,24.03
2019-04-05T04:50:17.219Z,26.73
2019-04-05T04:55:20.754Z,25.07
2019-04-05T05:00:23.826Z,25.80
2019-04-05T05:05:26.897Z,27.73
2019-04-05T05:10:30.320Z,25.57
2019-04-05T05:15:33.853Z,27.50
2019-04-05T05:20:37.926Z,24.00
2019-04-05T05:25:41.595Z,25.83
2019-04-05T05:30:44.838Z,23.67
2019-04-05T05:35:47.989Z,25.97
2019-04-05T05:40:51.319Z,24.77
2019-04-05T05:45:54.394Z,29.53
2019-04-05T05:50:58.425Z,27.00
2019-04-05T05:56:01.846Z,29.60
2019-04-05T06:01:05.164Z,29.20
2019-04-05T06:06:08.564Z,25.37
2019-04-05T06:11:12.011Z,25.83
2019-04-05T06:16:15.716Z,24.73
2019-04-05T06:21:19.029Z,23.80
2019-04-05T06:26:22.737Z,26.97
2019-04-05T06:31:26.143Z,26.80
2019-04-05T06:36:29.602Z,26.17
2019-04-05T06:41:33.296Z,26.87
2019-04-05T06:46:36.702Z,24.43
2019-04-05T06:51:40.342Z,21.67
2019-04-05T06:56:43.743Z,24.83
2019-04-05T07:01:47.169Z,27.37
2019-04-05T07:06:50.590Z,25.73
2019-04-05T07:11:53.675Z,22.60
2019-04-05T07:16:57.083Z,23.90
2019-04-05T07:22:00.242Z,21.80
2019-04-05T07:27:03.654Z,23.27
2019-04-05T07:32:07.050Z,22.63
2019-04-05T07:37:10.394Z,22.83
2019-04-05T07:42:13.454Z,21.27
2019-04-05T07:47:17.177Z,24.23
2019-04-05T07:52:20.666Z,24.30
2019-04-05T07:57:24.423Z,23.70
2019-04-05T08:02:28.130Z,23.90
2019-04-05T08:07:32.994Z,22.67
2019-04-05T08:12:36.938Z,24.63
2019-04-05T08:17:40.266Z,24.67
2019-04-05T08:22:43.342Z,23.13
2019-04-05T08:27:46.738Z,22.40
2019-04-05T08:32:50.462Z,22.33
2019-04-05T08:37:54.213Z,23.70
2019-04-05T08:42:57.682Z,24.10
2019-04-05T08:48:01.030Z,21.37
2019-04-05T08:53:04.439Z,22.93
2019-04-05T08:58:08.174Z,22.17
2019-04-05T09:03:12.094Z,25.53
2019-04-05T09:08:15.630Z,25.33
2019-04-05T09:13:19.301Z,23.80
2019-04-05T09:18:22.366Z,24.07
2019-04-05T09:23:26.054Z,24.57
2019-04-05T09:28:29.767Z,22.73
2019-04-05T09:33:33.094Z,25.07
2019-04-05T09:38:36.804Z,21.53
2019-04-05T09:43:40.527Z,21.10
2019-04-05T09:48:43.947Z,22.07
2019-04-05T09:53:47.270Z,21.43
2019-04-05T09:58:50.689Z,18.47
2019-04-05T10:03:53.760Z,19.57
2019-04-05T10:08:57.590Z,17.43
2019-04-05T10:14:01.346Z,18.17
2019-04-05T10:19:05.298Z,15.93
2019-04-05T10:24:08.370Z,13.50
2019-04-05T10:29:11.479Z,16.00
2019-04-05T10:34:14.606Z,14.37
2019-04-05T10:39:18.064Z,15.67
2019-04-05T10:44:21.827Z,15.60
2019-04-05T10:49:25.549Z,13.60
2019-04-05T10:54:29.261Z,13.20
2019-04-05T10:59:32.330Z,12.47
2019-04-05T11:04:35.989Z,13.27
2019-04-05T11:09:39.128Z,12.77
2019-04-05T11:14:42.202Z,12.10
2019-04-05T11:19:45.618Z,13.00
2019-04-05T11:24:49.044Z,13.67
2019-04-05T11:29:52.460Z,11.27
2019-04-05T11:34:55.874Z,12.63
2019-04-05T11:39:58.951Z,12.40
2019-04-05T11:45:04.334Z,11.60
2019-04-05T11:50:13.118Z,12.50
2019-04-05T11:55:18.175Z,13.83
2019-04-05T12:00:41.626Z,12.27
2019-04-05T12:05:44.718Z,12.10
2019-04-05T12:10:48.165Z,12.60
2019-04-05T12:15:51.883Z,11.60
2019-04-05T12:21:00.232Z,11.00
2019-04-05T12:26:03.791Z,13.43
2019-04-05T12:31:05.272Z,11.33
2019-04-05T12:36:08.752Z,12.77
2019-04-05T12:41:12.174Z,12.50
2019-04-05T12:46:16.292Z,12.07
2019-04-05T12:51:19.864Z,13.57
2019-04-05T12:56:26.212Z,12.57
2019-04-05T13:01:28.672Z,13.07
2019-04-05T13:06:32.077Z,13.37
2019-04-05T13:11:35.474Z,12.80
2019-04-05T13:16:39.183Z,13.40
2019-04-05T13:21:42.901Z,15.80
2019-04-05T13:26:46.844Z,18.33
2019-04-05T13:31:50.238Z,14.73
2019-04-05T13:36:53.981Z,15.87
2019-04-05T13:41:59.456Z,16.90
2019-04-05T13:47:03.151Z,14.93
2019-04-05T13:52:06.995Z,14.40
2019-04-05T13:57:11.401Z,15.20
2019-04-05T14:02:15.312Z,14.57
2019-04-05T14:07:19.091Z,15.68
2019-04-05T14:12:23.026Z,13.77
2019-04-05T14:17:26.734Z,13.43
2019-04-05T14:22:31.245Z,13.13
2019-04-05T14:27:35.611Z,13.10
2019-04-05T14:32:39.197Z,12.67
2019-04-05T14:37:42.274Z,14.13
2019-04-05T14:42:45.599Z,13.93
2019-04-05T14:47:49.399Z,13.43
2019-04-05T14:52:52.807Z,14.40
2019-04-05T14:57:56.505Z,14.77
2019-04-05T15:02:59.658Z,12.17
2019-04-05T15:08:03.551Z,15.43
2019-04-05T15:13:07.957Z,13.57
2019-04-05T15:18:11.282Z,14.07
2019-04-05T15:23:14.677Z,15.50
2019-04-05T15:28:18.122Z,17.20
2019-04-05T15:33:21.551Z,15.87
2019-04-05T15:38:24.623Z,14.00
2019-04-05T15:43:28.368Z,15.90
2019-04-05T15:48:31.774Z,16.97
2019-04-05T15:53:34.854Z,15.67
2019-04-05T15:58:38.615Z,14.33
2019-04-05T16:03:41.683Z,17.50
2019-04-05T16:08:45.354Z,18.30
2019-04-05T16:13:48.782Z,16.80
2019-04-05T16:18:52.434Z,18.53
2019-04-05T16:23:56.088Z,18.20
2019-04-05T16:28:59.496Z,19.23
2019-04-05T16:34:02.808Z,20.43
2019-04-05T16:39:09.821Z,21.70
2019-04-05T16:44:13.222Z,23.20
2019-04-05T16:49:16.959Z,23.67
2019-04-05T16:54:20.714Z,21.13
2019-04-05T16:59:24.110Z,23.57
2019-04-05T17:04:27.511Z,24.67
2019-04-05T17:09:31.323Z,25.37
2019-04-05T17:14:34.731Z,25.57
2019-04-05T17:19:38.146Z,24.85
2019-04-05T17:24:41.574Z,26.97
2019-04-05T17:29:44.646Z,24.03
2019-04-05T17:34:48.018Z,27.50
2019-04-05T17:39:51.110Z,29.37
2019-04-05T17:44:54.519Z,26.70
2019-04-05T17:49:58.250Z,26.20
2019-04-05T17:55:01.677Z,26.13
2019-04-05T18:00:11.388Z,28.57
2019-04-05T18:05:14.474Z,28.43
2019-04-05T18:10:17.885Z,29.40
2019-04-05T18:15:21.682Z,27.73
2019-04-05T18:20:25.112Z,31.47
2019-04-05T18:25:28.612Z,32.77
2019-04-05T18:30:32.023Z,31.87
2019-04-05T18:35:35.470Z,30.33
2019-04-05T18:40:40.309Z,34.63
2019-04-05T18:45:43.957Z,33.73
2019-04-05T18:50:48.660Z,32.60
2019-04-05T18:55:52.266Z,32.73
2019-04-05T19:00:55.992Z,30.57
2019-04-05T19:05:59.432Z,28.93
2019-04-05T19:11:02.551Z,31.53
2019-04-05T19:16:05.648Z,33.23
2019-04-05T19:21:09.030Z,31.10
2019-04-05T19:26:12.755Z,32.90
2019-04-05T19:51:36.850Z,32.80
2019-04-05T19:56:40.110Z,34.33
2019-04-05T20:01:43.820Z,34.30
2019-04-05T20:06:47.152Z,30.13
2019-04-05T20:11:50.229Z,28.67
2019-04-05T20:16:53.326Z,28.83
2019-04-05T20:21:56.436Z,29.50
2019-04-05T20:26:59.561Z,30.57
2019-04-05T20:32:02.642Z,30.43
2019-04-05T20:37:06.002Z,31.63
2019-04-05T20:42:09.402Z,31.60
2019-04-05T20:47:13.142Z,34.50
2019-04-05T20:52:16.776Z,29.63
2019-04-05T20:57:19.850Z,30.87
2019-04-05T21:02:22.969Z,30.57
2019-04-05T21:07:26.385Z,30.53
2019-04-05T21:12:29.777Z,30.00
2019-04-05T21:17:32.873Z,30.60
2019-04-05T21:22:36.530Z,29.47
2019-04-05T21:27:58.941Z,32.83
2019-04-05T21:33:02.300Z,30.90
2019-04-05T21:38:05.479Z,30.97
2019-04-05T21:43:08.648Z,31.17
2019-04-05T21:48:12.301Z,34.07
2019-04-05T21:53:15.374Z,33.37
2019-04-05T21:58:19.175Z,33.50
2019-04-05T22:03:22.592Z,35.57
2019-04-05T22:08:25.967Z,34.50
2019-04-05T22:13:29.378Z,36.77
2019-04-05T22:18:32.682Z,36.20
2019-04-05T22:23:36.090Z,36.90
2019-04-05T22:28:39.494Z,34.60
2019-04-05T22:33:43.126Z,40.13
2019-04-05T22:38:46.530Z,36.43
2019-04-05T22:43:49.934Z,31.83
2019-04-05T22:48:53.014Z,38.25
2019-04-05T22:53:56.761Z,31.50
2019-04-05T22:59:00.161Z,35.60
2019-04-05T23:04:03.470Z,36.60
2019-04-05T23:09:07.410Z,35.03
2019-04-05T23:14:10.490Z,32.27
2019-04-05T23:19:13.573Z,37.73
2019-04-05T23:24:16.966Z,36.33
2019-04-05T23:29:20.374Z,38.23
2019-04-05T23:34:23.686Z,33.23
2019-04-05T23:39:27.090Z,34.77
2019-04-05T23:44:30.499Z,34.80
2019-04-05T23:49:33.895Z,42.40
2019-04-05T23:54:37.612Z,33.60
2019-04-05T23:59:41.333Z,35.37
